Time;durP1;ratioP1;P1;durP2;ratioP2;P2;SDS_P1;SDS_P2;PMS_P1;PMS_P2;Temp;Humidity;BMP_temperature;BMP_pressure;BME280_temperature;BME280_humidity;BME280_pressure;Samples;Min_cycle;Max_cycle;Signal;HPM_P1;HPM_P2
2022/01/17 00:02:23;;;;;;;50.40;14.75;;;0.90;99.90;;;;;;5032310;28;20108;-85
2022/01/17 00:04:49;;;;;;;47.55;15.70;;;0.90;99.90;;;;;;5013996;28;20062;-85
2022/01/17 00:07:15;;;;;;;56.28;17.52;;;0.90;99.90;;;;;;5030248;28;20405;-85
2022/01/17 00:09:41;;;;;;;51.53;16.27;;;0.90;99.90;;;;;;5009926;28;20033;-85
2022/01/17 00:12:08;;;;;;;56.40;15.40;;;0.90;99.90;;;;;;5018514;28;20022;-85
2022/01/17 00:14:41;;;;;;;50.22;16.60;;;0.90;99.90;;;;;;5017528;28;20025;-85
2022/01/17 00:17:53;;;;;;;57.75;15.80;;;0.90;99.90;;;;;;5010805;28;20441;-85
2022/01/17 00:19:57;;;;;;;52.95;14.93;;;0.90;99.90;;;;;;5023816;28;20081;-85
2022/01/17 00:22:23;;;;;;;50.78;15.40;;;0.90;99.90;;;;;;4993315;28;20033;-84
2022/01/17 00:24:50;;;;;;;52.13;15.57;;;0.90;99.90;;;;;;5030842;28;20057;-85
2022/01/17 00:27:18;;;;;;;47.45;16.10;;;0.90;99.90;;;;;;5013502;28;20068;-85
2022/01/17 00:29:44;;;;;;;44.65;15.30;;;0.90;99.90;;;;;;5013211;28;20038;-85
2022/01/17 00:32:09;;;;;;;51.67;15.85;;;0.90;99.90;;;;;;5019299;28;20025;-84
2022/01/17 00:34:35;;;;;;;44.78;14.77;;;0.90;99.90;;;;;;5028538;28;20038;-84
2022/01/17 00:37:01;;;;;;;55.05;15.52;;;0.90;99.90;;;;;;4996015;28;20536;-85
2022/01/17 00:39:27;;;;;;;53.08;15.07;;;0.90;99.90;;;;;;5031561;28;20030;-85
2022/01/17 00:41:52;;;;;;;50.95;14.60;;;0.90;99.90;;;;;;5000433;28;20103;-85
2022/01/17 00:44:23;;;;;;;48.38;15.13;;;0.90;99.90;;;;;;5032919;28;20523;-85
2022/01/17 00:46:52;;;;;;;42.95;11.95;;;0.90;99.90;;;;;;5016875;28;20460;-84
2022/01/17 00:49:19;;;;;;;39.60;12.05;;;0.90;99.90;;;;;;5009846;28;20083;-85
2022/01/17 00:51:49;;;;;;;47.22;14.73;;;0.90;99.90;;;;;;4998581;28;20079;-84
2022/01/17 00:54:14;;;;;;;44.45;13.30;;;0.90;99.90;;;;;;5016679;28;20030;-85
2022/01/17 00:56:40;;;;;;;40.03;11.23;;;0.90;99.90;;;;;;5016263;28;20045;-84
2022/01/17 00:59:06;;;;;;;47.55;14.02;;;0.90;99.90;;;;;;5016403;28;20120;-84
2022/01/17 01:01:34;;;;;;;40.75;13.27;;;1.00;99.90;;;;;;5016196;28;20033;-85
2022/01/17 01:03:59;;;;;;;38.53;12.07;;;0.90;99.90;;;;;;5000494;28;20405;-84
2022/01/17 01:06:25;;;;;;;38.60;12.45;;;0.90;99.90;;;;;;5015580;28;20026;-85
2022/01/17 01:08:51;;;;;;;41.15;13.15;;;1.00;99.90;;;;;;5016068;28;20421;-84
2022/01/17 01:11:16;;;;;;;41.30;12.55;;;1.00;99.90;;;;;;5016333;28;20406;-85
2022/01/17 01:13:42;;;;;;;45.35;13.23;;;1.00;99.90;;;;;;5032849;28;20095;-85
2022/01/17 01:19:05;;;;;;;39.72;12.05;;;1.00;99.90;;;;;;5017179;28;20033;-85
2022/01/17 01:29:45;;;;;;;32.30;10.80;;;1.00;99.90;;;;;;5032586;28;20118;-85
2022/01/17 01:32:12;;;;;;;38.08;12.65;;;1.00;99.90;;;;;;5032241;28;20087;-85
2022/01/17 01:34:45;;;;;;;30.50;11.18;;;1.00;99.90;;;;;;5023493;28;20038;-84
2022/01/17 01:37:12;;;;;;;35.58;12.15;;;1.00;99.90;;;;;;5011976;28;20087;-85
2022/01/17 01:39:38;;;;;;;32.17;10.60;;;1.00;99.90;;;;;;5032052;28;20719;-85
2022/01/17 01:42:10;;;;;;;31.30;11.07;;;1.00;99.90;;;;;;5015456;28;20045;-84
2022/01/17 01:44:37;;;;;;;38.00;12.68;;;1.00;99.90;;;;;;5031826;28;20037;-84
2022/01/17 01:47:03;;;;;;;40.85;13.07;;;1.00;99.90;;;;;;5031542;28;20524;-84
2022/01/17 01:49:29;;;;;;;36.50;12.60;;;0.90;99.90;;;;;;5031906;28;20486;-85
2022/01/17 01:51:54;;;;;;;41.35;12.80;;;0.90;99.90;;;;;;5015200;28;20036;-85
2022/01/17 01:54:20;;;;;;;41.35;12.38;;;0.90;99.90;;;;;;4998992;28;20044;-84
2022/01/17 01:56:48;;;;;;;37.83;11.27;;;0.90;99.90;;;;;;5032564;28;20108;-85
2022/01/17 01:59:16;;;;;;;36.97;12.70;;;0.90;99.90;;;;;;5031734;28;20037;-84
2022/01/17 02:01:46;;;;;;;35.55;12.48;;;0.90;99.90;;;;;;5033052;28;20171;-84
2022/01/17 02:04:12;;;;;;;43.23;12.43;;;0.90;99.90;;;;;;5031540;28;20447;-84
2022/01/17 02:06:38;;;;;;;40.20;11.98;;;0.90;99.90;;;;;;5014353;28;20346;-84
2022/01/17 02:09:05;;;;;;;35.58;12.15;;;0.90;99.90;;;;;;5031574;28;20022;-84
2022/01/17 02:11:31;;;;;;;37.08;12.52;;;0.90;99.90;;;;;;5031383;28;20482;-84
2022/01/17 02:13:57;;;;;;;39.70;12.38;;;0.90;99.90;;;;;;5031542;28;20486;-84
2022/01/17 02:16:23;;;;;;;46.60;11.98;;;0.90;99.90;;;;;;5014202;28;20045;-84
2022/01/17 02:18:50;;;;;;;43.65;13.18;;;0.90;99.90;;;;;;5013187;28;20033;-84
2022/01/17 02:21:32;;;;;;;43.30;12.18;;;0.90;99.90;;;;;;5031184;28;20478;-85
2022/01/17 02:23:58;;;;;;;43.85;11.95;;;0.90;99.90;;;;;;5030652;28;20036;-85
2022/01/17 02:26:24;;;;;;;40.72;12.50;;;0.90;99.90;;;;;;5014440;28;20037;-85
2022/01/17 02:28:53;;;;;;;44.13;13.07;;;0.90;99.90;;;;;;5014476;28;20616;-85
2022/01/17 02:31:20;;;;;;;47.08;13.05;;;0.90;99.90;;;;;;5031122;28;20103;-85
2022/01/17 02:33:46;;;;;;;42.78;13.18;;;0.90;99.90;;;;;;5032577;28;20074;-85
2022/01/17 02:36:12;;;;;;;41.55;12.88;;;0.90;99.90;;;;;;5022372;28;20034;-85
2022/01/17 02:38:39;;;;;;;50.08;13.02;;;0.80;99.90;;;;;;4999809;28;20030;-84
2022/01/17 02:41:04;;;;;;;41.30;12.68;;;0.90;99.90;;;;;;5024161;28;20083;-85
2022/01/17 02:43:32;;;;;;;47.45;12.50;;;0.90;99.90;;;;;;5015715;28;20477;-85
2022/01/17 02:48:31;;;;;;;44.50;13.73;;;0.80;99.90;;;;;;5031595;28;20032;-84
2022/01/17 02:50:58;;;;;;;60.05;15.13;;;0.80;99.90;;;;;;5030886;28;20459;-84
2022/01/17 02:53:27;;;;;;;44.22;13.23;;;0.80;99.90;;;;;;5030532;28;20036;-85
2022/01/17 02:55:57;;;;;;;50.67;13.63;;;0.80;99.90;;;;;;5031491;28;20017;-85
2022/01/17 02:58:24;;;;;;;49.75;14.40;;;0.80;99.90;;;;;;5030377;28;20070;-85
2022/01/17 03:00:52;;;;;;;54.45;13.73;;;0.80;99.90;;;;;;4997628;28;20086;-84
2022/01/17 03:03:25;;;;;;;49.55;13.35;;;0.80;99.90;;;;;;5030600;28;20021;-84
2022/01/17 03:05:52;;;;;;;50.20;13.98;;;0.80;99.90;;;;;;5026978;28;20017;-85
2022/01/17 03:08:22;;;;;;;55.85;14.88;;;0.80;99.90;;;;;;5029458;28;20041;-84
2022/01/17 03:10:48;;;;;;;52.47;14.57;;;0.80;99.90;;;;;;5030647;28;20087;-85
2022/01/17 03:13:24;;;;;;;57.80;15.68;;;0.80;99.90;;;;;;5013980;28;20650;-85
2022/01/17 03:15:54;;;;;;;54.50;14.05;;;0.80;99.90;;;;;;5015099;28;20030;-85
2022/01/17 03:18:20;;;;;;;69.38;15.75;;;0.80;99.90;;;;;;5022093;28;20096;-84
2022/01/17 03:20:46;;;;;;;57.50;14.35;;;0.80;99.90;;;;;;5004374;28;20036;-85
2022/01/17 03:23:12;;;;;;;53.40;14.57;;;0.80;99.90;;;;;;5031523;28;20021;-85
2022/01/17 03:25:37;;;;;;;56.67;13.90;;;0.80;99.90;;;;;;5009903;28;20033;-85
2022/01/17 03:28:03;;;;;;;67.63;16.70;;;0.80;99.90;;;;;;4993091;28;20099;-85
2022/01/17 03:30:33;;;;;;;61.05;13.68;;;0.80;99.90;;;;;;5025991;28;20470;-85
2022/01/17 03:33:02;;;;;;;53.03;13.27;;;0.80;99.90;;;;;;5030137;28;20112;-85
2022/01/17 03:35:28;;;;;;;50.08;13.55;;;0.80;99.90;;;;;;4983482;28;20037;-85
2022/01/17 03:37:53;;;;;;;60.90;15.18;;;0.80;99.90;;;;;;5022547;28;20402;-85
2022/01/17 03:40:19;;;;;;;60.17;14.13;;;0.80;99.90;;;;;;4997085;28;20025;-84
2022/01/17 03:42:45;;;;;;;56.70;13.80;;;0.80;99.90;;;;;;5031086;28;20104;-84
2022/01/17 03:45:11;;;;;;;72.65;14.52;;;0.80;99.90;;;;;;5029743;28;20068;-85
2022/01/17 03:47:39;;;;;;;58.92;13.43;;;0.80;99.90;;;;;;5002956;28;20042;-85
2022/01/17 03:50:09;;;;;;;59.15;13.80;;;0.80;99.90;;;;;;5013362;28;20137;-85
2022/01/17 03:52:35;;;;;;;60.58;13.50;;;0.80;99.90;;;;;;5030512;28;20113;-85
2022/01/17 03:55:01;;;;;;;51.95;13.35;;;0.80;99.90;;;;;;5013219;28;20860;-85
2022/01/17 03:57:26;;;;;;;50.65;12.88;;;0.80;99.90;;;;;;5009475;28;20038;-85
2022/01/17 03:59:52;;;;;;;59.58;13.90;;;0.80;99.90;;;;;;5029477;28;20552;-85
2022/01/17 04:02:18;;;;;;;51.97;13.75;;;0.80;99.90;;;;;;4995889;28;20033;-85
2022/01/17 04:04:43;;;;;;;72.10;15.00;;;0.80;99.90;;;;;;5029359;28;20383;-85
2022/01/17 04:07:09;;;;;;;52.65;14.43;;;0.80;99.90;;;;;;4996308;28;20032;-85
2022/01/17 04:09:35;;;;;;;52.88;13.48;;;0.80;99.90;;;;;;5013018;28;20026;-85
2022/01/17 04:12:01;;;;;;;52.70;13.57;;;0.80;99.90;;;;;;5029090;28;20071;-84
2022/01/17 04:14:26;;;;;;;56.22;14.27;;;0.80;99.90;;;;;;5011859;28;20087;-85
2022/01/17 04:16:52;;;;;;;42.40;14.23;;;0.80;99.90;;;;;;5029445;28;20029;-84
2022/01/17 04:19:19;;;;;;;69.78;15.15;;;0.80;99.90;;;;;;5006199;28;20716;-85
2022/01/17 04:21:47;;;;;;;50.33;14.00;;;0.80;99.90;;;;;;5026217;28;20025;-85
2022/01/17 04:24:13;;;;;;;62.72;15.75;;;0.80;99.90;;;;;;5011049;28;20029;-85
2022/01/17 04:26:39;;;;;;;53.58;14.90;;;0.80;99.90;;;;;;5027464;28;20036;-84
2022/01/17 04:29:05;;;;;;;44.63;11.75;;;0.80;99.90;;;;;;5012190;28;20088;-84
2022/01/17 04:31:31;;;;;;;54.08;14.32;;;0.80;99.90;;;;;;4995884;28;20501;-84
2022/01/17 04:33:57;;;;;;;57.13;13.68;;;0.80;99.90;;;;;;5011621;28;20030;-85
2022/01/17 04:36:23;;;;;;;52.10;12.82;;;0.80;99.90;;;;;;4996503;28;20485;-85
2022/01/17 04:38:49;;;;;;;48.60;11.68;;;0.80;99.90;;;;;;5001490;28;20037;-85
2022/01/17 04:41:17;;;;;;;51.95;12.05;;;0.90;99.90;;;;;;4989348;28;20037;-85
2022/01/17 04:43:56;;;;;;;50.22;14.00;;;0.90;99.90;;;;;;5012153;28;20075;-85
2022/01/17 04:46:21;;;;;;;37.05;10.55;;;0.90;99.90;;;;;;5009084;28;20469;-85
2022/01/17 04:48:47;;;;;;;42.92;13.02;;;0.90;99.90;;;;;;5001658;28;20022;-85
2022/01/17 04:51:12;;;;;;;38.20;11.98;;;0.90;99.90;;;;;;5029162;28;20045;-85
2022/01/17 04:53:42;;;;;;;45.28;11.70;;;0.90;99.90;;;;;;5028294;28;20053;-85
2022/01/17 04:56:08;;;;;;;41.07;12.10;;;0.90;99.90;;;;;;5011169;28;20439;-85
2022/01/17 04:58:33;;;;;;;39.58;11.38;;;0.90;99.90;;;;;;4978416;28;20273;-85
2022/01/17 05:00:59;;;;;;;39.45;10.80;;;0.90;99.90;;;;;;5003425;28;20036;-84
2022/01/17 05:03:26;;;;;;;37.10;10.63;;;0.90;99.90;;;;;;5026030;28;20052;-85
2022/01/17 05:05:52;;;;;;;54.30;12.68;;;0.90;99.90;;;;;;5026128;28;20026;-85
2022/01/17 05:08:18;;;;;;;37.28;11.85;;;0.90;99.90;;;;;;5025327;28;20052;-85
2022/01/17 05:10:51;;;;;;;39.55;11.43;;;0.90;99.90;;;;;;5027849;28;20037;-85
2022/01/17 05:13:21;;;;;;;40.25;10.55;;;0.90;99.90;;;;;;5027495;28;20025;-84
2022/01/17 05:15:53;;;;;;;32.35;9.85;;;0.90;99.90;;;;;;5010430;28;20399;-85
2022/01/17 05:20:56;;;;;;;39.80;10.93;;;0.90;99.90;;;;;;5028468;28;20478;-85
2022/01/17 05:23:22;;;;;;;48.30;12.23;;;0.90;99.90;;;;;;5011471;28;20036;-84
2022/01/17 05:25:47;;;;;;;41.45;11.48;;;0.90;99.90;;;;;;5013679;28;20025;-85
2022/01/17 05:28:13;;;;;;;41.00;10.60;;;0.90;99.90;;;;;;5031565;23;20041;-85
2022/01/17 05:30:38;;;;;;;43.88;12.00;;;0.90;99.90;;;;;;5057162;28;20047;-85
2022/01/17 05:33:04;;;;;;;50.72;12.73;;;0.90;99.90;;;;;;5074732;28;20402;-85
2022/01/17 05:35:30;;;;;;;41.00;10.75;;;0.90;99.90;;;;;;5090703;28;20395;-85
2022/01/17 05:37:55;;;;;;;46.78;12.52;;;0.90;99.90;;;;;;5091049;28;20028;-84
2022/01/17 05:40:21;;;;;;;43.72;12.45;;;0.90;99.90;;;;;;5058128;28;20522;-85
2022/01/17 05:42:49;;;;;;;48.92;12.40;;;0.90;99.90;;;;;;5057400;28;20035;-85
2022/01/17 05:45:16;;;;;;;37.38;11.82;;;0.90;99.90;;;;;;5056383;28;20064;-85
2022/01/17 05:47:42;;;;;;;43.40;11.65;;;0.90;99.90;;;;;;5038631;28;20029;-85
2022/01/17 05:50:08;;;;;;;48.55;12.65;;;0.90;99.90;;;;;;5072504;28;20024;-85
2022/01/17 05:52:35;;;;;;;47.83;11.77;;;0.90;99.90;;;;;;5065777;28;20472;-85
2022/01/17 05:55:03;;;;;;;37.47;11.05;;;0.90;99.90;;;;;;5073984;28;20047;-85
2022/01/17 05:57:29;;;;;;;41.33;11.48;;;0.90;99.90;;;;;;5052360;28;20024;-85
2022/01/17 05:59:54;;;;;;;52.10;13.68;;;0.90;99.90;;;;;;5057627;28;20101;-85
2022/01/17 06:02:20;;;;;;;45.90;13.55;;;0.90;99.90;;;;;;5072758;28;20032;-85
2022/01/17 06:04:46;;;;;;;49.90;12.27;;;0.90;99.90;;;;;;5074953;28;20119;-85
2022/01/17 06:07:11;;;;;;;47.45;12.77;;;0.90;99.90;;;;;;5053833;28;20355;-85
2022/01/17 06:09:37;;;;;;;45.25;11.55;;;0.90;99.90;;;;;;5063897;28;20021;-85
2022/01/17 06:12:03;;;;;;;52.65;12.52;;;0.90;99.90;;;;;;5061511;28;20488;-85
2022/01/17 06:14:30;;;;;;;42.80;12.25;;;0.90;99.90;;;;;;5062281;28;20055;-85
2022/01/17 06:16:56;;;;;;;40.58;10.70;;;0.90;99.90;;;;;;5070667;28;20544;-85
2022/01/17 06:19:21;;;;;;;45.20;11.85;;;0.90;99.90;;;;;;5051536;28;20120;-85
2022/01/17 06:21:48;;;;;;;44.33;11.77;;;0.90;99.90;;;;;;5054530;28;20040;-85
2022/01/17 06:24:13;;;;;;;42.53;11.05;;;0.90;99.90;;;;;;5067265;28;20079;-85
2022/01/17 06:26:41;;;;;;;48.15;12.45;;;0.90;99.90;;;;;;5073147;28;20454;-85
2022/01/17 06:29:08;;;;;;;41.22;11.15;;;0.90;99.90;;;;;;5060499;28;20044;-85
2022/01/17 06:31:35;;;;;;;49.80;12.65;;;0.90;99.90;;;;;;5020936;28;20029;-85
2022/01/17 06:34:01;;;;;;;61.00;12.60;;;0.90;99.90;;;;;;5038957;28;20374;-85
2022/01/17 06:36:27;;;;;;;42.60;11.15;;;0.90;99.90;;;;;;5070274;28;20326;-85
2022/01/17 06:38:56;;;;;;;45.92;12.25;;;0.90;99.90;;;;;;5070269;28;20088;-85
2022/01/17 06:41:22;;;;;;;47.50;12.43;;;0.90;99.90;;;;;;5060716;28;20036;-85
2022/01/17 06:43:48;;;;;;;51.35;12.57;;;0.90;99.90;;;;;;5054626;28;20043;-85
2022/01/17 06:46:14;;;;;;;37.00;11.45;;;0.90;99.90;;;;;;5034917;28;20099;-85
2022/01/17 06:48:42;;;;;;;46.35;11.38;;;0.90;99.90;;;;;;5055862;28;20505;-85
2022/01/17 06:51:07;;;;;;;41.15;12.43;;;0.90;99.90;;;;;;5091351;28;20012;-85
2022/01/17 06:53:33;;;;;;;36.92;10.75;;;1.00;99.90;;;;;;5056214;28;20047;-84
2022/01/17 06:56:00;;;;;;;45.28;11.55;;;1.00;99.90;;;;;;5056286;28;20126;-85
2022/01/17 06:58:26;;;;;;;48.35;11.25;;;0.90;99.90;;;;;;5072787;28;20020;-85
2022/01/17 07:00:51;;;;;;;43.60;11.32;;;0.90;99.90;;;;;;5037944;28;20033;-85
2022/01/17 07:03:17;;;;;;;44.70;11.43;;;0.90;99.90;;;;;;5033076;28;20033;-85
2022/01/17 07:05:42;;;;;;;36.63;11.38;;;0.90;99.90;;;;;;5032822;28;20029;-86
2022/01/17 07:08:08;;;;;;;43.40;12.82;;;1.00;99.90;;;;;;5049299;28;20029;-85
2022/01/17 07:10:34;;;;;;;39.80;10.98;;;1.00;99.90;;;;;;5076060;28;20032;-85
2022/01/17 07:13:00;;;;;;;46.10;12.55;;;1.00;99.90;;;;;;5056120;28;20391;-85
2022/01/17 07:15:26;;;;;;;41.85;11.02;;;1.00;99.90;;;;;;5072362;28;20042;-85
2022/01/17 07:17:51;;;;;;;45.47;12.32;;;1.00;99.90;;;;;;5056794;28;20119;-85
2022/01/17 07:20:17;;;;;;;36.33;11.40;;;1.00;99.90;;;;;;5021351;28;20032;-85
2022/01/17 07:22:44;;;;;;;43.10;11.27;;;1.00;99.90;;;;;;5036041;28;20028;-85
2022/01/17 07:25:10;;;;;;;39.40;11.48;;;1.00;99.90;;;;;;5019326;28;20032;-85
2022/01/17 07:27:36;;;;;;;46.90;11.48;;;1.00;99.90;;;;;;5035688;28;20036;-85
2022/01/17 07:30:05;;;;;;;43.20;11.43;;;1.00;99.90;;;;;;5060799;28;20059;-85
2022/01/17 07:32:31;;;;;;;52.00;11.98;;;1.00;99.90;;;;;;5052693;28;20056;-85
2022/01/17 07:34:57;;;;;;;43.63;13.18;;;1.00;99.90;;;;;;5055707;28;20522;-85
2022/01/17 07:37:23;;;;;;;54.13;12.23;;;1.00;99.90;;;;;;5053742;28;20040;-85
2022/01/17 07:39:49;;;;;;;52.90;13.57;;;1.00;99.90;;;;;;5057327;28;20063;-85
2022/01/17 07:42:14;;;;;;;46.47;12.68;;;1.00;99.90;;;;;;5052480;28;20446;-85
2022/01/17 07:44:42;;;;;;;45.72;12.82;;;1.00;99.90;;;;;;5051944;28;20044;-85
2022/01/17 07:47:16;;;;;;;37.25;11.38;;;1.00;99.90;;;;;;5077597;28;20029;-85
2022/01/17 07:49:45;;;;;;;51.78;11.80;;;1.00;99.90;;;;;;5064075;28;20029;-85
2022/01/17 07:52:11;;;;;;;46.95;10.98;;;1.00;99.90;;;;;;5016319;28;20032;-85
2022/01/17 07:54:43;;;;;;;43.72;11.82;;;1.10;99.90;;;;;;5052097;28;20028;-85
2022/01/17 07:57:10;;;;;;;41.15;12.98;;;1.10;99.90;;;;;;5052317;28;20489;-85
2022/01/17 07:59:35;;;;;;;47.50;12.88;;;1.10;99.90;;;;;;5055510;28;20074;-85
2022/01/17 08:02:02;;;;;;;44.22;12.30;;;1.10;99.90;;;;;;5055148;28;20027;-85
2022/01/17 08:04:28;;;;;;;47.08;12.10;;;1.10;99.90;;;;;;5054703;28;20029;-85
2022/01/17 08:06:55;;;;;;;48.20;11.70;;;1.10;99.90;;;;;;5049057;28;20547;-85
2022/01/17 08:09:29;;;;;;;45.03;11.95;;;1.10;99.90;;;;;;5032158;28;20032;-85
2022/01/17 08:11:56;;;;;;;49.70;12.35;;;1.20;99.90;;;;;;5050079;28;20021;-85
2022/01/17 08:14:23;;;;;;;43.75;11.77;;;1.20;99.90;;;;;;5065838;28;20028;-85
2022/01/17 08:16:49;;;;;;;42.70;11.88;;;1.20;99.90;;;;;;5071433;28;20062;-85
2022/01/17 08:19:15;;;;;;;45.03;13.10;;;1.20;99.90;;;;;;5055009;28;20060;-85
2022/01/17 08:21:41;;;;;;;40.97;11.48;;;1.20;99.90;;;;;;5052521;28;20043;-85
2022/01/17 08:24:06;;;;;;;40.20;11.68;;;1.20;99.90;;;;;;5040218;28;20436;-85
2022/01/17 08:26:33;;;;;;;41.95;11.63;;;1.30;99.90;;;;;;5071022;28;20028;-85
2022/01/17 08:28:58;;;;;;;42.00;11.48;;;1.30;99.90;;;;;;5057557;28;20032;-85
2022/01/17 08:31:24;;;;;;;43.75;11.70;;;1.30;99.90;;;;;;5034930;28;20056;-85
2022/01/17 08:33:49;;;;;;;33.88;10.35;;;1.30;99.90;;;;;;5051688;28;20120;-85
2022/01/17 08:36:19;;;;;;;51.60;12.40;;;1.30;99.90;;;;;;5064029;28;20225;-85
2022/01/17 08:38:48;;;;;;;42.10;11.38;;;1.30;99.90;;;;;;5062007;28;20104;-85
2022/01/17 08:41:14;;;;;;;45.00;11.50;;;1.30;99.90;;;;;;5071512;28;20032;-85
2022/01/17 08:43:39;;;;;;;41.42;11.55;;;1.40;99.90;;;;;;5050752;28;20508;-85
2022/01/17 08:46:06;;;;;;;36.75;10.57;;;1.40;99.90;;;;;;5050882;28;20036;-85
2022/01/17 08:48:33;;;;;;;30.45;9.55;;;1.50;99.90;;;;;;5051045;28;20028;-85
2022/01/17 08:50:58;;;;;;;36.55;11.55;;;1.50;99.90;;;;;;5048148;28;20032;-85
2022/01/17 08:53:24;;;;;;;36.53;10.75;;;1.60;99.90;;;;;;5054915;28;20031;-85
2022/01/17 08:55:50;;;;;;;36.67;10.80;;;1.60;99.90;;;;;;5071084;28;20058;-85
2022/01/17 08:58:16;;;;;;;39.80;11.45;;;1.60;99.90;;;;;;5054415;28;20060;-85
2022/01/17 09:00:45;;;;;;;32.55;9.50;;;1.70;99.90;;;;;;5044349;28;20156;-85
2022/01/17 09:03:11;;;;;;;32.05;10.05;;;1.70;99.90;;;;;;5055042;28;20090;-85
2022/01/17 09:05:40;;;;;;;30.27;10.02;;;1.70;99.90;;;;;;5038379;28;20443;-85
2022/01/17 09:08:08;;;;;;;31.13;10.80;;;1.70;99.90;;;;;;5037752;28;20374;-85
2022/01/17 09:10:36;;;;;;;32.03;10.60;;;1.70;99.90;;;;;;5055570;28;20024;-85
2022/01/17 09:13:02;;;;;;;35.78;10.07;;;1.80;99.90;;;;;;5049456;28;20063;-85
2022/01/17 09:15:29;;;;;;;42.03;11.57;;;1.80;99.90;;;;;;5058358;28;20032;-85
2022/01/17 09:17:55;;;;;;;36.90;11.48;;;1.80;99.90;;;;;;5049209;28;20084;-85
2022/01/17 09:20:21;;;;;;;41.58;11.73;;;1.90;99.90;;;;;;5044087;28;20040;-85
2022/01/17 09:22:46;;;;;;;36.40;11.48;;;2.00;99.90;;;;;;5056535;28;20093;-85
2022/01/17 09:25:12;;;;;;;39.60;12.30;;;2.00;99.90;;;;;;5070308;28;20035;-85
2022/01/17 09:27:38;;;;;;;37.13;10.45;;;2.10;99.90;;;;;;5072689;28;20029;-85
2022/01/17 09:30:07;;;;;;;37.63;11.18;;;2.10;99.90;;;;;;5035411;28;20036;-85
2022/01/17 09:32:33;;;;;;;36.50;10.77;;;2.20;99.90;;;;;;5025251;28;20037;-85
2022/01/17 09:34:59;;;;;;;36.95;11.02;;;2.20;99.90;;;;;;5042461;28;20074;-85
2022/01/17 09:37:25;;;;;;;28.27;10.23;;;2.20;99.90;;;;;;5071977;28;20032;-85
2022/01/17 09:39:51;;;;;;;28.10;9.98;;;2.20;99.90;;;;;;5062726;28;20029;-85
2022/01/17 09:42:17;;;;;;;34.35;10.55;;;2.20;99.90;;;;;;5066866;28;20028;-85
2022/01/17 09:44:42;;;;;;;31.85;10.65;;;2.30;99.90;;;;;;5050497;28;20059;-85
2022/01/17 09:47:12;;;;;;;33.10;11.30;;;2.40;99.90;;;;;;5074353;28;20038;-86
2022/01/17 09:49:48;;;;;;;38.30;11.95;;;2.40;99.90;;;;;;5058952;28;20039;-86
2022/01/17 09:52:33;;;;;;;37.67;10.60;;;2.40;99.90;;;;;;5066226;28;20504;-85
2022/01/17 09:55:15;;;;;;;31.95;11.57;;;2.40;99.90;;;;;;5052885;28;20481;-85
2022/01/17 09:57:48;;;;;;;32.42;10.45;;;2.30;99.90;;;;;;5061766;28;20079;-85
2022/01/17 10:00:16;;;;;;;35.80;11.60;;;2.30;99.90;;;;;;5065066;28;20036;-85
2022/01/17 10:02:41;;;;;;;39.42;11.77;;;2.30;99.90;;;;;;5056091;28;20037;-85
2022/01/17 10:05:10;;;;;;;41.05;12.70;;;2.30;99.90;;;;;;5054405;28;20120;-85
2022/01/17 10:07:54;;;;;;;39.28;11.98;;;2.20;99.90;;;;;;5054393;28;20029;-84
2022/01/17 10:10:41;;;;;;;36.35;11.05;;;2.20;99.90;;;;;;5071758;28;20586;-85
2022/01/17 10:13:09;;;;;;;34.33;12.05;;;2.30;99.90;;;;;;5054048;28;20497;-84
2022/01/17 10:15:46;;;;;;;41.63;13.13;;;2.20;99.90;;;;;;5071613;28;20020;-84
2022/01/17 10:18:36;;;;;;;38.38;11.63;;;2.20;99.90;;;;;;5074183;28;20036;-84
2022/01/17 10:21:14;;;;;;;36.07;11.80;;;2.20;99.90;;;;;;5057831;28;20051;-84
2022/01/17 10:24:07;;;;;;;41.47;12.27;;;2.20;99.90;;;;;;5092442;28;20292;-84
2022/01/17 10:37:13;;;;;;;33.80;12.40;;;2.50;99.90;;;;;;5077299;28;20420;-85
2022/01/17 10:39:53;;;;;;;41.45;12.65;;;2.40;99.90;;;;;;5065335;28;20028;-85
2022/01/17 10:42:29;;;;;;;48.87;12.53;;;2.50;99.90;;;;;;5050753;28;20104;-85
2022/01/17 10:45:04;;;;;;;37.58;12.88;;;2.50;99.90;;;;;;5050520;28;20033;-84
2022/01/17 10:47:30;;;;;;;47.35;13.30;;;2.50;99.90;;;;;;5051826;28;20021;-84
2022/01/17 10:50:01;;;;;;;45.95;14.25;;;2.50;99.90;;;;;;5017524;28;20458;-85
2022/01/17 10:52:49;;;;;;;34.47;11.52;;;2.50;99.90;;;;;;5034189;28;20021;-84
2022/01/17 10:55:25;;;;;;;39.78;12.57;;;2.60;99.90;;;;;;5051526;28;20166;-85
2022/01/17 10:57:53;;;;;;;41.70;12.77;;;2.60;99.90;;;;;;5050695;28;20074;-84
2022/01/17 11:00:22;;;;;;;34.55;11.95;;;2.70;99.90;;;;;;5017678;28;20025;-85
2022/01/17 11:02:57;;;;;;;36.90;12.50;;;2.70;99.90;;;;;;5086423;28;20024;-85
2022/01/17 11:05:27;;;;;;;36.05;13.10;;;2.80;99.90;;;;;;5056995;28;20124;-85
2022/01/17 11:07:58;;;;;;;41.08;12.38;;;2.80;99.90;;;;;;5018230;28;20501;-84
2022/01/17 11:10:27;;;;;;;36.47;11.88;;;2.90;99.90;;;;;;5053936;28;20040;-85
2022/01/17 11:13:00;;;;;;;34.30;12.50;;;2.90;99.90;;;;;;5053661;28;20024;-85
2022/01/17 11:15:26;;;;;;;37.92;13.18;;;3.00;99.90;;;;;;5037513;28;20029;-85
2022/01/17 11:17:56;;;;;;;33.20;11.80;;;3.00;99.90;;;;;;5053201;28;20021;-85
2022/01/17 11:20:25;;;;;;;34.58;12.07;;;3.10;99.90;;;;;;5053344;28;20405;-84
2022/01/17 11:22:54;;;;;;;32.13;11.00;;;3.10;99.90;;;;;;5036484;28;20029;-85
2022/01/17 11:25:23;;;;;;;30.52;11.32;;;3.10;99.90;;;;;;5070921;28;20029;-85
2022/01/17 11:27:50;;;;;;;30.10;11.50;;;3.20;99.90;;;;;;5052691;28;20032;-85
2022/01/17 11:30:16;;;;;;;31.40;12.05;;;3.20;99.90;;;;;;5071184;28;20029;-84
2022/01/17 11:32:44;;;;;;;31.83;11.20;;;3.20;99.90;;;;;;5052834;28;20029;-85
2022/01/17 11:35:11;;;;;;;34.70;11.88;;;3.20;99.90;;;;;;5094681;22;20127;-82
2022/01/17 11:37:39;;;;;;;33.17;12.13;;;3.20;99.90;;;;;;5075715;28;20381;-82
2022/01/17 11:40:08;;;;;;;31.27;11.10;;;3.10;99.90;;;;;;5053519;28;20032;-82
2022/01/17 11:42:46;;;;;;;36.72;12.55;;;3.10;99.90;;;;;;5075650;28;20016;-82
2022/01/17 11:45:22;;;;;;;30.02;10.77;;;3.00;99.90;;;;;;5059409;28;20056;-82
2022/01/17 11:48:06;;;;;;;28.52;10.70;;;3.10;99.90;;;;;;5075876;28;20462;-81
2022/01/17 11:50:42;;;;;;;35.03;10.93;;;3.10;99.90;;;;;;5042611;28;20033;-82
2022/01/17 11:53:10;;;;;;;29.52;12.57;;;3.10;99.90;;;;;;5038623;28;20047;-81
2022/01/17 11:55:44;;;;;;;32.90;12.52;;;3.10;99.90;;;;;;5056251;28;20017;-81
2022/01/17 11:58:27;;;;;;;35.08;11.65;;;3.10;99.90;;;;;;5043609;28;20060;-81
2022/01/17 12:01:01;;;;;;;31.70;11.68;;;3.00;99.90;;;;;;5058760;28;20052;-82
2022/01/17 12:03:47;;;;;;;27.98;10.98;;;3.00;99.90;;;;;;5058947;28;20048;-82
2022/01/17 12:06:31;;;;;;;32.72;10.50;;;3.00;99.90;;;;;;5038188;28;20092;-81
2022/01/17 12:09:19;;;;;;;36.33;11.40;;;3.00;99.90;;;;;;5039825;28;20063;-82
2022/01/17 12:11:46;;;;;;;35.97;12.50;;;3.00;99.90;;;;;;5039049;28;20031;-81
2022/01/17 12:14:32;;;;;;;32.90;12.05;;;2.90;99.90;;;;;;5033064;28;20020;-81
2022/01/17 12:17:20;;;;;;;29.33;11.88;;;2.90;99.90;;;;;;5066625;28;20028;-82
2022/01/17 12:20:09;;;;;;;41.53;13.38;;;2.90;99.90;;;;;;5074401;28;20562;-81
2022/01/17 12:22:43;;;;;;;36.90;12.77;;;2.90;99.90;;;;;;5076662;28;20101;-81
2022/01/17 12:25:25;;;;;;;34.08;13.02;;;2.90;99.90;;;;;;5078046;28;20035;-81
2022/01/17 12:28:17;;;;;;;30.52;11.90;;;2.90;99.90;;;;;;5069550;28;20025;-81
2022/01/17 12:30:46;;;;;;;39.22;13.48;;;3.00;99.90;;;;;;5026179;28;20063;-82
2022/01/17 12:33:30;;;;;;;33.70;12.77;;;3.00;99.90;;;;;;5034339;28;20021;-81
2022/01/17 12:35:58;;;;;;;33.95;12.15;;;3.00;99.90;;;;;;5057299;28;20513;-82
2022/01/17 12:38:37;;;;;;;31.73;13.38;;;3.10;99.90;;;;;;5040977;28;20035;-82
2022/01/17 12:41:04;;;;;;;36.08;13.50;;;3.10;99.90;;;;;;5041683;28;20053;-82
2022/01/17 12:43:32;;;;;;;38.97;12.75;;;3.10;99.90;;;;;;5057469;28;20032;-82
2022/01/17 12:46:11;;;;;;;38.75;13.95;;;3.00;99.90;;;;;;5074651;28;20024;-82
2022/01/17 12:48:38;;;;;;;34.35;13.30;;;3.00;99.90;;;;;;5057643;28;20036;-82
2022/01/17 12:51:07;;;;;;;34.78;13.13;;;3.00;99.90;;;;;;5040809;28;20024;-82
2022/01/17 12:53:34;;;;;;;35.13;13.50;;;3.10;99.90;;;;;;5041322;28;20024;-82
2022/01/17 12:56:06;;;;;;;36.42;12.95;;;3.10;99.90;;;;;;5040419;28;20052;-82
2022/01/17 12:58:37;;;;;;;33.33;13.65;;;3.20;99.90;;;;;;5074237;28;20028;-81
2022/01/17 13:01:08;;;;;;;30.30;13.13;;;3.30;99.90;;;;;;5073446;28;20119;-81
2022/01/17 13:03:36;;;;;;;31.98;12.30;;;3.30;99.90;;;;;;5056808;28;20043;-81
2022/01/17 13:06:08;;;;;;;29.13;12.23;;;3.40;99.90;;;;;;5056853;28;20028;-82
2022/01/17 13:08:35;;;;;;;36.13;14.35;;;3.40;99.90;;;;;;5041001;28;20029;-82
2022/01/17 13:11:20;;;;;;;33.10;13.93;;;3.40;99.90;;;;;;5040372;28;20036;-82
2022/01/17 13:14:01;;;;;;;32.35;12.05;;;3.40;99.90;;;;;;5074088;28;20052;-82